Time;durP1;ratioP1;P1;durP2;ratioP2;P2;SDS_P1;SDS_P2;PMS_P1;PMS_P2;Temp;Humidity;BMP_temperature;BMP_pressure;BME280_temperature;BME280_humidity;BME280_pressure;Samples;Min_cycle;Max_cycle;Signal;HPM_P1;HPM_P2
2022/01/11 00:02:08;;;;;;;;;;;;;;;-1.67;100.00;99313.50;1632018;86;20226;-86
2022/01/11 00:04:34;;;;;;;;;;;;;;;-1.69;100.00;99322.48;1633915;88;25413;-85
2022/01/11 00:07:03;;;;;;;;;;;;;;;-1.69;100.00;99316.92;1637160;85;21992;-86
2022/01/11 00:09:39;;;;;;;;;;;;;;;-1.68;100.00;99325.47;1633852;86;26052;-85
2022/01/11 00:12:01;;;;;;;;;;;;;;;-1.70;100.00;99328.50;1633936;88;25357;-85
2022/01/11 00:14:28;;;;;;;;;;;;;;;-1.71;100.00;99333.20;1633988;86;20253;-86
2022/01/11 00:16:54;;;;;;;;;;;;;;;-1.71;100.00;99333.20;1632592;87;24830;-85
2022/01/11 00:19:20;;;;;;;;;;;;;;;-1.70;100.00;99331.06;1636366;85;21900;-85
2022/01/11 00:21:48;;;;;;;;;;;;;;;-1.72;100.00;99332.78;1633925;87;25836;-86
2022/01/11 00:24:29;;;;;;;;;;;;;;;-1.73;100.00;99342.61;1635244;86;24503;-86
2022/01/11 00:26:56;;;;;;;;;;;;;;;-1.77;100.00;99343.50;1624057;86;20230;-86
2022/01/11 00:29:23;;;;;;;;;;;;;;;-1.80;100.00;99344.81;1635142;86;24772;-85
2022/01/11 00:31:49;;;;;;;;;;;;;;;-1.84;100.00;99343.97;1636949;86;22177;-82
2022/01/11 00:34:18;;;;;;;;;;;;;;;-1.85;100.00;99347.81;1635209;87;26061;-82
2022/01/11 00:36:43;;;;;;;;;;;;;;;-1.86;100.00;99343.56;1632376;87;24446;-81
2022/01/11 00:39:10;;;;;;;;;;;;;;;-1.86;100.00;99352.55;1635572;86;20194;-82
2022/01/11 00:41:40;;;;;;;;;;;;;;;-1.88;100.00;99353.83;1628412;86;24884;-81
2022/01/11 00:44:07;;;;;;;;;;;;;;;-1.90;100.00;99367.50;1647335;85;21962;-81
2022/01/11 00:46:33;;;;;;;;;;;;;;;-1.92;100.00;99361.55;1634052;86;26218;-82
2022/01/11 00:48:59;;;;;;;;;;;;;;;-1.94;100.00;99361.55;1632947;87;24384;-82
2022/01/11 00:51:25;;;;;;;;;;;;;;;-1.94;100.00;99361.98;1634042;86;20503;-82
2022/01/11 00:53:52;;;;;;;;;;;;;;;-1.93;100.00;99360.70;1633986;87;24734;-82
2022/01/11 00:56:18;;;;;;;;;;;;;;;-1.92;100.00;99358.98;1633970;86;22019;-82
2022/01/11 00:58:44;;;;;;;;;;;;;;;-1.93;100.00;99365.83;1634329;85;25991;-82
2022/01/11 01:01:12;;;;;;;;;;;;;;;-1.92;100.00;99366.68;1634011;86;24371;-82
2022/01/11 01:03:40;;;;;;;;;;;;;;;-1.92;100.00;99370.53;1636446;85;20235;-82
2022/01/11 01:06:08;;;;;;;;;;;;;;;-1.91;100.00;99370.50;1634814;85;25427;-82
2022/01/11 01:08:34;;;;;;;;;;;;;;;-1.90;100.00;99368.36;1626444;86;22061;-82
2022/01/11 01:11:00;;;;;;;;;;;;;;;-1.88;100.00;99369.64;1626707;87;25964;-82
2022/01/11 01:13:28;;;;;;;;;;;;;;;-1.88;100.00;99364.09;1623268;88;24553;-82
2022/01/11 01:15:55;;;;;;;;;;;;;;;-1.88;100.00;99370.50;1633899;86;20578;-82
2022/01/11 01:18:26;;;;;;;;;;;;;;;-1.89;100.00;99375.20;1637991;86;24869;-82
2022/01/11 01:20:53;;;;;;;;;;;;;;;-1.91;100.00;99367.11;1634258;86;21966;-82
2022/01/11 01:23:19;;;;;;;;;;;;;;;-1.92;100.00;99363.69;1633668;86;26145;-82
2022/01/11 01:25:46;;;;;;;;;;;;;;;-1.92;100.00;99365.40;1635910;86;24472;-82
2022/01/11 01:28:12;;;;;;;;;;;;;;;-1.93;100.00;99372.23;1637932;86;20482;-82
2022/01/11 01:30:38;;;;;;;;;;;;;;;-1.97;100.00;99376.11;1632948;86;24815;-82
2022/01/11 01:33:05;;;;;;;;;;;;;;;-1.99;100.00;99373.97;1638515;85;22032;-82
2022/01/11 01:35:39;;;;;;;;;;;;;;;-2.04;100.00;99373.14;1635172;86;25972;-82
2022/01/11 01:38:00;;;;;;;;;;;;;;;-2.07;100.00;99376.56;1654381;85;24444;-82
2022/01/11 01:40:33;;;;;;;;;;;;;;;-2.08;100.00;99370.17;1647605;87;20477;-82
2022/01/11 01:42:55;;;;;;;;;;;;;;;-2.10;100.00;99372.74;1649533;85;24777;-82
2022/01/11 01:45:23;;;;;;;;;;;;;;;-2.11;100.00;99375.73;1648301;85;22118;-81
2022/01/11 01:47:53;;;;;;;;;;;;;;;-2.11;100.00;99378.30;1648691;87;26583;-82
2022/01/11 01:50:17;;;;;;;;;;;;;;;-2.06;100.00;99372.28;1649946;85;25180;-82
2022/01/11 01:52:43;;;;;;;;;;;;;;;-2.06;100.00;99375.70;1648379;85;20268;-82
2022/01/11 01:55:11;;;;;;;;;;;;;;;-2.08;100.00;99378.73;1648544;87;20253;-82
2022/01/11 01:57:37;;;;;;;;;;;;;;;-2.08;100.00;99383.86;1645448;87;22171;-81
2022/01/11 02:00:11;;;;;;;;;;;;;;;-2.10;100.00;99381.72;1648599;87;26022;-82
2022/01/11 02:02:32;;;;;;;;;;;;;;;-2.14;100.00;99374.91;1648410;87;24488;-82
2022/01/11 02:04:58;;;;;;;;;;;;;;;-2.17;100.00;99378.31;1648803;85;20300;-82
2022/01/11 02:07:26;;;;;;;;;;;;;;;-2.17;100.00;99380.02;1648605;87;24831;-82
2022/01/11 02:09:52;;;;;;;;;;;;;;;-2.18;100.00;99377.03;1649988;85;22867;-82
2022/01/11 02:12:18;;;;;;;;;;;;;;;-2.20;100.00;99384.75;1648693;87;25994;-82
2022/01/11 02:14:44;;;;;;;;;;;;;;;-2.30;100.00;99370.69;1648038;85;24381;-82
2022/01/11 02:17:10;;;;;;;;;;;;;;;-2.22;100.00;99382.61;1648168;87;20227;-82
2022/01/11 02:19:36;;;;;;;;;;;;;;;-2.19;100.00;99390.73;1648914;85;24720;-82
2022/01/11 02:22:07;;;;;;;;;;;;;;;-2.19;100.00;99393.30;1648523;87;21972;-82
2022/01/11 02:24:33;;;;;;;;;;;;;;;-2.21;100.00;99392.02;1648010;87;26733;-82
2022/01/11 02:26:59;;;;;;;;;;;;;;;-2.20;100.00;99394.16;1649086;85;25165;-82
2022/01/11 02:29:27;;;;;;;;;;;;;;;-2.21;100.00;99396.28;1649698;85;20204;-82
2022/01/11 02:31:53;;;;;;;;;;;;;;;-2.22;100.00;99396.71;1629621;87;24196;-82
2022/01/11 02:34:19;;;;;;;;;;;;;;;-2.23;100.00;99396.28;1649542;85;21938;-82
2022/01/11 02:36:45;;;;;;;;;;;;;;;-2.23;100.00;99401.41;1648369;87;26044;-81
2022/01/11 02:39:12;;;;;;;;;;;;;;;-2.23;100.00;99403.97;1628999;87;25392;-81
2022/01/11 02:41:40;;;;;;;;;;;;;;;-2.23;100.00;99401.41;1645616;87;20223;-82
2022/01/11 02:44:06;;;;;;;;;;;;;;;-2.26;100.00;99405.28;1647934;85;24570;-82
2022/01/11 02:46:32;;;;;;;;;;;;;;;-2.25;100.00;99409.55;1647445;85;22001;-82
2022/01/11 02:48:58;;;;;;;;;;;;;;;-2.23;100.00;99410.38;1647558;86;25952;-82
2022/01/11 02:51:24;;;;;;;;;;;;;;;-2.24;100.00;99412.97;1650012;85;24426;-82
2022/01/11 02:53:52;;;;;;;;;;;;;;;-2.27;100.00;99415.53;1648427;85;20248;-82
2022/01/11 02:56:19;;;;;;;;;;;;;;;-2.29;100.00;99423.21;1648691;86;24755;-82
2022/01/11 02:58:46;;;;;;;;;;;;;;;-2.30;100.00;99420.25;1650314;85;21970;-82
2022/01/11 03:01:12;;;;;;;;;;;;;;;-2.30;100.00;99419.39;1648981;85;26194;-81
2022/01/11 03:03:38;;;;;;;;;;;;;;;-2.29;100.00;99417.27;1648450;87;24468;-82
2022/01/11 03:06:05;;;;;;;;;;;;;;;-2.27;100.00;99415.10;1648543;87;20510;-85
2022/01/11 03:08:33;;;;;;;;;;;;;;;-2.27;100.00;99421.94;1648477;87;24766;-85
2022/01/11 03:11:00;;;;;;;;;;;;;;;-2.27;100.00;99430.91;1648384;87;22822;-85
2022/01/11 03:13:26;;;;;;;;;;;;;;;-2.31;100.00;99430.08;1648282;85;26293;-86
2022/01/11 03:15:53;;;;;;;;;;;;;;;-2.31;100.00;99431.36;1648465;87;24477;-86
2022/01/11 03:18:19;;;;;;;;;;;;;;;-2.32;100.00;99436.05;1648775;85;20620;-86
2022/01/11 03:20:46;;;;;;;;;;;;;;;-2.35;100.00;99433.51;1648650;87;24828;-85
2022/01/11 03:23:14;;;;;;;;;;;;;;;-2.36;100.00;99436.92;1648517;87;22061;-86
2022/01/11 03:25:41;;;;;;;;;;;;;;;-2.36;100.00;99441.19;1648685;87;25993;-86
2022/01/11 03:28:07;;;;;;;;;;;;;;;-2.39;100.00;99438.19;1629109;87;24502;-86
2022/01/11 03:30:33;;;;;;;;;;;;;;;-2.40;100.00;99442.89;1646178;87;20313;-86
2022/01/11 03:32:59;;;;;;;;;;;;;;;-2.39;99.81;99446.31;1648657;85;24939;-86
2022/01/11 03:35:27;;;;;;;;;;;;;;;-2.37;99.68;99446.74;1645906;85;21949;-86
2022/01/11 03:37:53;;;;;;;;;;;;;;;-2.36;99.55;99446.32;1635113;86;26237;-86
2022/01/11 03:40:24;;;;;;;;;;;;;;;-2.37;99.39;99449.31;1635875;86;25194;-86
2022/01/11 03:42:50;;;;;;;;;;;;;;;-2.36;99.28;99448.45;1636455;86;20143;-86
2022/01/11 03:45:20;;;;;;;;;;;;;;;-2.33;99.16;99455.27;1633999;86;24827;-86
2022/01/11 03:47:46;;;;;;;;;;;;;;;-2.33;99.04;99452.70;1633514;86;22083;-86
2022/01/11 03:50:12;;;;;;;;;;;;;;;-2.34;98.91;99454.41;1634027;86;25995;-85
2022/01/11 03:52:43;;;;;;;;;;;;;;;-2.34;98.81;99453.13;1635507;86;24483;-85
2022/01/11 03:55:12;;;;;;;;;;;;;;;-2.33;98.65;99450.14;1634243;87;20219;-86
2022/01/11 03:57:38;;;;;;;;;;;;;;;-2.31;98.56;99450.58;1632405;86;24762;-86
2022/01/11 04:00:13;;;;;;;;;;;;;;;-2.28;98.51;99449.28;1634406;86;22022;-85
2022/01/11 04:02:39;;;;;;;;;;;;;;;-2.26;98.46;99454.41;1633765;86;25658;-85
2022/01/11 04:05:13;;;;;;;;;;;;;;;-2.26;98.41;99459.11;1634965;86;20253;-85
2022/01/11 04:07:41;;;;;;;;;;;;;;;-2.25;98.33;99467.23;1634294;86;20207;-85
2022/01/11 04:10:13;;;;;;;;;;;;;;;-2.25;98.26;99463.81;1634797;86;25049;-85
2022/01/11 04:12:39;;;;;;;;;;;;;;;-2.26;98.20;99466.80;1637280;86;22735;-85
2022/01/11 04:15:06;;;;;;;;;;;;;;;-2.26;98.10;99474.92;1635552;86;26173;-85
2022/01/11 04:17:34;;;;;;;;;;;;;;;-2.29;97.98;99474.48;1634020;87;24731;-85
2022/01/11 04:20:00;;;;;;;;;;;;;;;-2.30;97.88;99475.36;1634421;85;20258;-85
2022/01/11 04:22:26;;;;;;;;;;;;;;;-2.27;97.78;99478.33;1634023;88;24883;-85
2022/01/11 04:24:53;;;;;;;;;;;;;;;-2.27;97.71;99479.19;1635756;86;22550;-85
2022/01/11 04:27:19;;;;;;;;;;;;;;;-2.29;97.60;99474.48;1635052;86;26264;-85
2022/01/11 04:29:45;;;;;;;;;;;;;;;-2.28;97.48;99480.47;1635929;86;24286;-86
2022/01/11 04:32:11;;;;;;;;;;;;;;;-2.27;97.42;99482.17;1634044;87;20266;-86
2022/01/11 04:34:37;;;;;;;;;;;;;;;-2.28;97.33;99485.16;1634378;86;24806;-85
2022/01/11 04:37:03;;;;;;;;;;;;;;;-2.30;97.21;99485.62;1626228;86;22057;-85
2022/01/11 04:39:29;;;;;;;;;;;;;;;-2.33;97.07;99483.04;1623168;87;26105;-85
2022/01/11 04:41:55;;;;;;;;;;;;;;;-2.34;96.96;99492.86;1623198;87;24526;-85
2022/01/11 04:44:21;;;;;;;;;;;;;;;-2.35;96.80;99496.73;1622658;88;20318;-86
2022/01/11 04:46:48;;;;;;;;;;;;;;;-2.37;96.65;99495.87;1621172;88;24736;-85
2022/01/11 04:49:14;;;;;;;;;;;;;;;-2.34;96.53;99495.84;1622664;88;21972;-85
2022/01/11 04:51:40;;;;;;;;;;;;;;;-2.36;96.43;99493.73;1622517;87;26030;-86
2022/01/11 04:54:07;;;;;;;;;;;;;;;-2.39;96.29;99497.14;1624499;86;24628;-86
2022/01/11 04:56:33;;;;;;;;;;;;;;;-2.41;96.12;99496.31;1622623;87;20221;-86
2022/01/11 04:58:59;;;;;;;;;;;;;;;-2.43;95.98;99500.58;1622648;87;25988;-85
2022/01/11 05:01:25;;;;;;;;;;;;;;;-2.44;95.86;99495.02;1622905;88;22207;-85
2022/01/11 05:03:51;;;;;;;;;;;;;;;-2.42;95.74;99502.28;1622707;88;26182;-84
2022/01/11 05:06:19;;;;;;;;;;;;;;;-2.45;95.59;99503.98;1622290;88;24481;-83
2022/01/11 05:08:45;;;;;;;;;;;;;;;-2.48;95.45;99506.13;1622614;88;20167;-83
2022/01/11 05:11:12;;;;;;;;;;;;;;;-2.49;95.29;99506.98;1620560;87;25444;-83
2022/01/11 05:13:38;;;;;;;;;;;;;;;-2.51;95.14;99507.43;1622655;88;22069;-83
2022/01/11 05:16:04;;;;;;;;;;;;;;;-2.50;94.99;99501.84;1625222;87;26038;-82
2022/01/11 05:18:31;;;;;;;;;;;;;;;-2.50;94.87;99516.80;1622809;88;24236;-82
2022/01/11 05:20:57;;;;;;;;;;;;;;;-2.49;94.78;99519.80;1622738;88;20328;-86
2022/01/11 05:23:23;;;;;;;;;;;;;;;-2.48;94.70;99520.66;1622591;88;24726;-85
2022/01/11 05:25:49;;;;;;;;;;;;;;;-2.48;94.62;99522.79;1622534;88;22579;-86
2022/01/11 05:28:15;;;;;;;;;;;;;;;-2.54;94.46;99526.20;1622407;87;26028;-86
2022/01/11 05:30:41;;;;;;;;;;;;;;;-2.56;94.31;99530.89;1622277;87;25283;-85
2022/01/11 05:33:07;;;;;;;;;;;;;;;-2.56;94.15;99533.45;1629797;86;20232;-85
2022/01/11 05:35:34;;;;;;;;;;;;;;;-2.57;94.05;99534.33;1622595;87;24950;-84
2022/01/11 05:38:00;;;;;;;;;;;;;;;-2.59;93.89;99536.03;1633558;87;22067;-85
2022/01/11 05:40:26;;;;;;;;;;;;;;;-2.60;93.76;99530.47;1635605;86;26248;-85
2022/01/11 05:42:52;;;;;;;;;;;;;;;-2.61;93.66;99541.14;1634507;86;24421;-85
2022/01/11 05:45:20;;;;;;;;;;;;;;;-2.59;93.55;99544.57;1613715;88;20166;-86
2022/01/11 05:47:52;;;;;;;;;;;;;;;-2.61;93.46;99547.97;1634124;87;24812;-86
2022/01/11 05:50:18;;;;;;;;;;;;;;;-2.61;93.37;99550.11;1634382;86;21992;-86
2022/01/11 05:52:45;;;;;;;;;;;;;;;-2.59;93.29;99547.56;1633787;88;26092;-85
2022/01/11 05:55:11;;;;;;;;;;;;;;;-2.61;93.21;99550.11;1633799;87;24702;-85
2022/01/11 05:57:38;;;;;;;;;;;;;;;-2.65;93.08;99550.11;1634201;87;20230;-86
2022/01/11 06:00:04;;;;;;;;;;;;;;;-2.67;92.97;99553.09;1634247;86;24780;-84
2022/01/11 06:02:30;;;;;;;;;;;;;;;-2.69;92.85;99551.83;1633705;87;22013;-82
2022/01/11 06:04:56;;;;;;;;;;;;;;;-2.67;92.77;99555.65;1633922;86;27894;-86
2022/01/11 06:07:25;;;;;;;;;;;;;;;-2.66;92.70;99561.20;1637156;85;24669;-81
2022/01/11 06:09:51;;;;;;;;;;;;;;;-2.66;92.64;99559.92;1634059;87;20170;-82
2022/01/11 06:12:18;;;;;;;;;;;;;;;-2.66;92.59;99564.63;1634132;86;24956;-84
2022/01/11 06:14:44;;;;;;;;;;;;;;;-2.67;92.54;99565.90;1634292;87;21982;-86
2022/01/11 06:17:13;;;;;;;;;;;;;;;-2.69;92.44;99575.30;1634154;87;26063;-86
2022/01/11 06:19:39;;;;;;;;;;;;;;;-2.72;92.35;99577.42;1633947;85;24507;-86
2022/01/11 06:22:05;;;;;;;;;;;;;;;-2.73;92.24;99580.86;1633581;88;20604;-82
2022/01/11 06:24:31;;;;;;;;;;;;;;;-2.72;92.17;99585.11;1635904;86;24902;-84
2022/01/11 06:26:57;;;;;;;;;;;;;;;-2.71;92.11;99585.97;1634303;86;22185;-84
2022/01/11 06:29:23;;;;;;;;;;;;;;;-2.71;92.04;99589.39;1632409;87;26198;-83
2022/01/11 06:31:49;;;;;;;;;;;;;;;-2.71;92.01;99590.67;1633693;87;20818;-83
2022/01/11 06:34:15;;;;;;;;;;;;;;;-2.70;91.98;99597.92;1634643;86;20839;-86
2022/01/11 06:36:41;;;;;;;;;;;;;;;-2.69;91.95;99605.63;1630243;87;24810;-86
2022/01/11 06:39:08;;;;;;;;;;;;;;;-2.69;91.91;99610.75;1623646;86;21993;-84
2022/01/11 06:41:35;;;;;;;;;;;;;;;-2.72;91.85;99610.72;1624930;87;26157;-85
2022/01/11 06:44:01;;;;;;;;;;;;;;;-2.70;91.82;99616.72;1603764;88;23592;-85
2022/01/11 06:46:28;;;;;;;;;;;;;;;-2.71;91.77;99625.25;1622501;87;20320;-85
2022/01/11 06:48:59;;;;;;;;;;;;;;;-2.70;91.76;99629.95;1604703;86;24717;-81
2022/01/11 06:51:26;;;;;;;;;;;;;;;-2.70;91.73;99636.36;1623111;86;22060;-81
2022/01/11 06:53:52;;;;;;;;;;;;;;;-2.71;91.72;99640.63;1624896;86;25996;-82
2022/01/11 06:56:20;;;;;;;;;;;;;;;-2.74;91.67;99641.05;1620537;88;24386;-81
2022/01/11 06:58:46;;;;;;;;;;;;;;;-2.76;91.60;99649.14;1624615;87;20555;-82
2022/01/11 07:01:12;;;;;;;;;;;;;;;-2.80;91.52;99658.96;1622639;88;24162;-82
2022/01/11 07:03:38;;;;;;;;;;;;;;;-2.85;91.41;99652.97;1622137;87;22056;-84
2022/01/11 07:06:07;;;;;;;;;;;;;;;-2.88;91.33;99651.66;1620431;87;26038;-85
2022/01/11 07:08:33;;;;;;;;;;;;;;;-2.90;91.23;99654.66;1622230;87;24390;-84
2022/01/11 07:11:02;;;;;;;;;;;;;;;-2.92;91.19;99656.34;1620566;87;20282;-85
2022/01/11 07:13:28;;;;;;;;;;;;;;;-2.93;91.12;99653.36;1622660;87;24856;-86
2022/01/11 07:15:54;;;;;;;;;;;;;;;-2.92;91.13;99661.47;1623870;87;21941;-85
2022/01/11 07:18:20;;;;;;;;;;;;;;;-2.89;91.14;99660.22;1622608;86;21163;-86
2022/01/11 07:20:46;;;;;;;;;;;;;;;-2.87;91.17;99658.50;1626003;87;24457;-82
2022/01/11 07:23:13;;;;;;;;;;;;;;;-2.89;91.18;99662.33;1622496;87;20211;-82
2022/01/11 07:25:39;;;;;;;;;;;;;;;-2.89;91.18;99670.47;1624153;87;24769;-86
2022/01/11 07:28:06;;;;;;;;;;;;;;;-2.89;91.19;99667.91;1624401;87;21918;-86
2022/01/11 07:30:32;;;;;;;;;;;;;;;-2.90;91.16;99675.16;1624022;86;26006;-86
2022/01/11 07:32:58;;;;;;;;;;;;;;;-2.94;91.13;99671.70;1624336;87;24281;-86
2022/01/11 07:35:24;;;;;;;;;;;;;;;-2.97;91.11;99675.13;1623275;87;20302;-86
2022/01/11 07:37:51;;;;;;;;;;;;;;;-2.97;91.09;99684.09;1627786;85;24799;-86
2022/01/11 07:40:18;;;;;;;;;;;;;;;-2.97;91.05;99687.92;1627559;86;22125;-86
2022/01/11 07:42:44;;;;;;;;;;;;;;;-2.96;91.07;99694.77;1628573;86;26160;-86
2022/01/11 07:45:10;;;;;;;;;;;;;;;-2.92;91.09;99698.61;1629105;86;24326;-81
2022/01/11 07:47:36;;;;;;;;;;;;;;;-2.91;91.12;99703.74;1629553;86;20309;-83
2022/01/11 07:50:03;;;;;;;;;;;;;;;-2.87;91.20;99705.88;1629943;86;24752;-83
2022/01/11 07:52:29;;;;;;;;;;;;;;;-2.85;91.23;99709.31;1625426;86;21964;-83
2022/01/11 07:54:57;;;;;;;;;;;;;;;-2.82;91.29;99711.87;1627729;86;26682;-85
2022/01/11 07:57:23;;;;;;;;;;;;;;;-2.81;91.36;99703.34;1627042;86;24510;-85
2022/01/11 07:59:49;;;;;;;;;;;;;;;-2.81;91.37;99708.47;1628501;86;20211;-84
2022/01/11 08:02:15;;;;;;;;;;;;;;;-2.82;91.36;99709.31;1627685;87;25620;-85
2022/01/11 08:04:41;;;;;;;;;;;;;;;-2.88;91.30;99702.46;1627315;86;22098;-85
2022/01/11 08:07:10;;;;;;;;;;;;;;;-2.85;91.29;99713.16;1628708;86;25957;-85
2022/01/11 08:09:36;;;;;;;;;;;;;;;-2.88;91.27;99715.27;1628176;86;24466;-85
2022/01/11 08:12:03;;;;;;;;;;;;;;;-2.90;91.22;99714.42;1630355;86;20250;-85
2022/01/11 08:14:29;;;;;;;;;;;;;;;-2.89;91.20;99719.13;1627522;86;24846;-82
2022/01/11 08:16:55;;;;;;;;;;;;;;;-2.88;91.19;99716.55;1628187;86;22229;-85
2022/01/11 08:19:25;;;;;;;;;;;;;;;-2.87;91.19;99718.69;1627323;87;26204;-84
2022/01/11 08:21:51;;;;;;;;;;;;;;;-2.85;91.20;99726.83;1627760;88;25092;-85
2022/01/11 08:24:21;;;;;;;;;;;;;;;-2.83;91.22;99725.10;1629402;86;20219;-85
2022/01/11 08:26:47;;;;;;;;;;;;;;;-2.83;91.23;99732.79;1626264;88;24787;-85
2022/01/11 08:29:14;;;;;;;;;;;;;;;-2.83;91.23;99731.50;1627989;88;22154;-84
2022/01/11 08:31:40;;;;;;;;;;;;;;;-2.78;91.27;99731.55;1627566;88;25434;-85
2022/01/11 08:34:11;;;;;;;;;;;;;;;-2.79;91.31;99720.88;1627508;86;24435;-84
2022/01/11 08:36:36;;;;;;;;;;;;;;;-2.80;91.31;99725.14;1628194;86;20294;-85
2022/01/11 08:39:02;;;;;;;;;;;;;;;-2.80;91.31;99726.84;1631943;87;24816;-86
2022/01/11 08:41:28;;;;;;;;;;;;;;;-2.76;91.35;99727.27;1633611;87;22726;-82
2022/01/11 08:43:54;;;;;;;;;;;;;;;-2.76;91.37;99732.39;1634615;86;25987;-81
2022/01/11 08:46:20;;;;;;;;;;;;;;;-2.74;91.38;99730.70;1633915;87;21085;-81
2022/01/11 08:48:46;;;;;;;;;;;;;;;-2.71;91.43;99727.72;1632043;85;20229;-82
2022/01/11 08:51:12;;;;;;;;;;;;;;;-2.68;91.49;99732.88;1635776;84;24781;-86
2022/01/11 08:53:39;;;;;;;;;;;;;;;-2.66;91.57;99731.58;1634769;86;21980;-86
2022/01/11 08:56:08;;;;;;;;;;;;;;;-2.66;91.60;99733.72;1635182;86;25961;-86
2022/01/11 08:58:35;;;;;;;;;;;;;;;-2.63;91.63;99736.73;1634760;86;24524;-86
2022/01/11 09:01:01;;;;;;;;;;;;;;;-2.66;91.61;99734.14;1633473;86;20218;-86
2022/01/11 09:03:27;;;;;;;;;;;;;;;-2.69;91.54;99735.42;1636211;86;24789;-86
2022/01/11 09:05:53;;;;;;;;;;;;;;;-2.66;91.51;99740.13;1634465;85;21983;-86
2022/01/11 09:08:20;;;;;;;;;;;;;;;-2.63;91.50;99740.16;1635784;86;26004;-86
2022/01/11 09:10:46;;;;;;;;;;;;;;;-2.66;91.43;99746.95;1635684;86;24533;-86
2022/01/11 09:13:14;;;;;;;;;;;;;;;-2.63;91.41;99745.70;1633517;86;20255;-86
2022/01/11 09:15:40;;;;;;;;;;;;;;;-2.62;91.41;99738.00;1636349;86;25522;-86
2022/01/11 09:18:06;;;;;;;;;;;;;;;-2.58;91.43;99738.46;1639088;86;20823;-85
2022/01/11 09:20:32;;;;;;;;;;;;;;;-2.49;91.48;99732.92;1634149;87;26064;-86
2022/01/11 09:22:58;;;;;;;;;;;;;;;-2.40;91.61;99735.08;1634758;86;20372;-85
2022/01/11 09:25:25;;;;;;;;;;;;;;;-2.31;91.73;99731.28;1636462;85;20209;-85
2022/01/11 09:27:51;;;;;;;;;;;;;;;-2.27;91.78;99727.00;1634399;86;24798;-85
2022/01/11 09:30:17;;;;;;;;;;;;;;;-2.22;91.84;99731.28;1634272;87;22046;-86
2022/01/11 09:32:43;;;;;;;;;;;;;;;-2.20;91.87;99730.88;1634072;86;26006;-86
2022/01/11 09:35:11;;;;;;;;;;;;;;;-2.26;91.82;99735.13;1633956;87;24504;-85
2022/01/11 09:37:37;;;;;;;;;;;;;;;-2.23;91.78;99737.69;1636116;85;20492;-86
2022/01/11 09:40:05;;;;;;;;;;;;;;;-2.22;91.73;99731.28;1633850;88;25440;-85
2022/01/11 09:42:31;;;;;;;;;;;;;;;-2.27;91.63;99736.83;1635086;86;21978;-86
2022/01/11 09:44:58;;;;;;;;;;;;;;;-2.29;91.54;99741.09;1634298;87;26221;-86
2022/01/11 09:47:24;;;;;;;;;;;;;;;-2.26;91.49;99744.10;1632985;86;24466;-86
2022/01/11 09:49:51;;;;;;;;;;;;;;;-2.25;91.45;99738.98;1633744;85;20563;-86
2022/01/11 09:52:17;;;;;;;;;;;;;;;-2.29;91.40;99737.24;1632331;85;24756;-85
2022/01/11 09:54:45;;;;;;;;;;;;;;;-2.31;91.31;99734.27;1632853;86;22043;-86
2022/01/11 09:57:11;;;;;;;;;;;;;;;-2.30;91.26;99738.12;1633620;86;25498;-85
2022/01/11 09:59:38;;;;;;;;;;;;;;;-2.25;91.26;99735.14;1614310;87;24456;-86
2022/01/11 10:02:04;;;;;;;;;;;;;;;-2.21;91.28;99725.73;1634201;87;20211;-86
2022/01/11 10:04:36;;;;;;;;;;;;;;;-2.17;91.29;99734.71;1633664;86;24818;-86
2022/01/11 10:07:01;;;;;;;;;;;;;;;-2.11;91.32;99731.30;1633940;87;22081;-86
2022/01/11 10:09:29;;;;;;;;;;;;;;;-2.07;91.37;99725.77;1633620;88;26022;-86
2022/01/11 10:11:56;;;;;;;;;;;;;;;-2.06;91.37;99730.88;1634352;86;24443;-86
2022/01/11 10:14:31;;;;;;;;;;;;;;;-2.07;91.34;99730.45;1634282;87;20325;-86
2022/01/11 10:17:05;;;;;;;;;;;;;;;-2.05;91.28;99737.73;1633981;86;24798;-86
2022/01/11 10:19:31;;;;;;;;;;;;;;;-1.99;91.28;99736.88;1631451;86;21967;-86
2022/01/11 10:21:57;;;;;;;;;;;;;;;-2.00;91.27;99724.91;1636442;86;26669;-86
2022/01/11 10:24:35;;;;;;;;;;;;;;;-1.99;91.23;99735.17;1634168;86;24597;-86
2022/01/11 10:27:15;;;;;;;;;;;;;;;-2.03;91.15;99733.47;1634423;86;20237;-83
2022/01/11 10:29:45;;;;;;;;;;;;;;;-2.04;91.05;99738.16;1636198;86;24787;-86
2022/01/11 10:32:13;;;;;;;;;;;;;;;-1.99;90.97;99739.02;1632798;87;22094;-86
2022/01/11 10:34:39;;;;;;;;;;;;;;;-1.94;90.99;99737.31;1634286;86;26037;-87
2022/01/11 10:37:05;;;;;;;;;;;;;;;-1.93;90.96;99731.76;1634571;86;24584;-86
2022/01/11 10:39:36;;;;;;;;;;;;;;;-1.93;90.93;99735.19;1623451;85;20230;-86
2022/01/11 10:42:03;;;;;;;;;;;;;;;-1.93;90.85;99734.33;1620022;88;24866;-82
2022/01/11 10:44:47;;;;;;;;;;;;;;;-1.90;90.82;99733.03;1622177;86;22824;-82
2022/01/11 10:47:18;;;;;;;;;;;;;;;-1.93;90.80;99732.62;1622316;87;26066;-82
2022/01/11 10:49:44;;;;;;;;;;;;;;;-1.90;90.74;99736.88;1622132;87;24488;-86
2022/01/11 10:52:21;;;;;;;;;;;;;;;-1.93;90.67;99740.31;1621216;88;20501;-86
2022/01/11 10:54:47;;;;;;;;;;;;;;;-1.86;90.63;99739.90;1621609;88;24902;-86
2022/01/11 10:57:24;;;;;;;;;;;;;;;-1.82;90.60;99737.75;1621363;87;21944;-87
2022/01/11 11:00:04;;;;;;;;;;;;;;;-1.81;90.57;99735.20;1622775;87;26113;-86
2022/01/11 11:02:30;;;;;;;;;;;;;;;-1.81;90.54;99740.75;1603435;88;24684;-86
2022/01/11 11:04:58;;;;;;;;;;;;;;;-1.84;90.45;99741.59;1603670;89;20274;-86
2022/01/11 11:07:26;;;;;;;;;;;;;;;-1.83;90.37;99738.61;1622899;88;25822;-86
2022/01/11 11:09:52;;;;;;;;;;;;;;;-1.82;90.35;99737.75;1622170;88;21927;-86
2022/01/11 11:12:19;;;;;;;;;;;;;;;-1.83;90.26;99741.17;1622355;86;26142;-82
2022/01/11 11:14:53;;;;;;;;;;;;;;;-1.84;90.22;99733.04;1622768;87;24502;-86
2022/01/11 11:17:29;;;;;;;;;;;;;;;-1.87;90.13;99735.62;1622583;86;21400;-86
2022/01/11 11:19:56;;;;;;;;;;;;;;;-1.90;90.06;99735.17;1621170;88;25375;-87
2022/01/11 11:22:25;;;;;;;;;;;;;;;-1.90;90.00;99736.88;1624994;86;22618;-83
2022/01/11 11:24:53;;;;;;;;;;;;;;;-1.85;90.02;99730.04;1622181;87;26062;-86
2022/01/11 11:27:20;;;;;;;;;;;;;;;-1.79;90.07;99741.16;1621924;88;24449;-83
2022/01/11 11:29:47;;;;;;;;;;;;;;;-1.73;90.12;99745.45;1622796;88;20247;-83
2022/01/11 11:32:21;;;;;;;;;;;;;;;-1.69;90.19;99733.89;1622519;86;24778;-87
2022/01/11 11:34:52;;;;;;;;;;;;;;;-1.59;90.29;99739.05;1622630;87;21969;-86
2022/01/11 11:37:19;;;;;;;;;;;;;;;-1.48;90.40;99735.63;1625019;86;25966;-82
2022/01/11 11:39:46;;;;;;;;;;;;;;;-1.40;90.51;99730.03;1622463;86;25306;-82
2022/01/11 11:42:16;;;;;;;;;;;;;;;-1.36;90.55;99730.88;1622782;88;20191;-87
2022/01/11 11:44:44;;;;;;;;;;;;;;;-1.37;90.52;99729.19;1622869;88;24836;-87
2022/01/11 11:47:10;;;;;;;;;;;;;;;-1.39;90.48;99727.90;1620205;86;22197;-83
2022/01/11 11:49:47;;;;;;;;;;;;;;;-1.40;90.43;99726.61;1621364;86;25973;-83
2022/01/11 11:52:37;;;;;;;;;;;;;;;-1.45;90.33;99727.91;1624223;86;24442;-82
2022/01/11 11:55:05;;;;;;;;;;;;;;;-1.47;90.25;99730.89;1623092;86;20470;-88
2022/01/11 11:57:32;;;;;;;;;;;;;;;-1.50;90.17;99736.47;1622072;87;25397;-87
2022/01/11 12:00:00;;;;;;;;;;;;;;;-1.52;90.09;99733.03;1623717;86;21589;-87
2022/01/11 12:02:34;;;;;;;;;;;;;;;-1.51;90.04;99738.59;1623106;86;26877;-87
2022/01/11 12:05:00;;;;;;;;;;;;;;;-1.50;89.98;99740.31;1624007;87;24529;-87
2022/01/11 12:07:29;;;;;;;;;;;;;;;-1.46;89.99;99738.16;1621539;88;20476;-83
2022/01/11 12:09:55;;;;;;;;;;;;;;;-1.41;90.01;99742.44;1623546;87;25566;-83
2022/01/11 12:12:40;;;;;;;;;;;;;;;-1.44;90.03;99746.30;1623968;87;20884;-83
2022/01/11 12:15:23;;;;;;;;;;;;;;;-1.54;89.91;99742.47;1622793;88;26246;-83
2022/01/11 12:17:51;;;;;;;;;;;;;;;-1.59;89.76;99737.77;1622237;86;24536;-83
2022/01/11 12:20:19;;;;;;;;;;;;;;;-1.61;89.64;99739.47;1623589;86;20269;-83
2022/01/11 12:22:53;;;;;;;;;;;;;;;-1.59;89.59;99736.05;1624943;87;25530;-83
2022/01/11 12:25:29;;;;;;;;;;;;;;;-1.54;89.63;99737.33;1622962;88;22273;-82
2022/01/11 12:28:00;;;;;;;;;;;;;;;-1.45;89.73;99736.03;1622661;87;26296;-82
2022/01/11 12:30:26;;;;;;;;;;;;;;;-1.46;89.73;99739.45;1621085;88;24601;-82
2022/01/11 12:33:12;;;;;;;;;;;;;;;-1.50;89.65;99737.75;1624891;88;20252;-86
2022/01/11 12:35:52;;;;;;;;;;;;;;;-1.54;89.58;99745.89;1621143;87;24942;-86
2022/01/11 12:38:18;;;;;;;;;;;;;;;-1.56;89.48;99738.61;1624981;85;21993;-86
2022/01/11 12:40:44;;;;;;;;;;;;;;;-1.55;89.44;99748.45;1634210;86;26010;-81
2022/01/11 12:43:17;;;;;;;;;;;;;;;-1.53;89.43;99743.76;1634051;87;24443;-81
2022/01/11 12:46:04;;;;;;;;;;;;;;;-1.53;89.44;99747.61;1634236;86;20308;-87